Flight Track Log - Related Links

Times and Time Zones

All times are in EDT time to prevent confusion due to time zone crossing. See the N44EV flight status page for this flight to view local times or setup timezone preferences in your user account.

Time Position Orientation Groundspeed Altitude Reporting Facility
EDT Latitude Longitude Course Direction KTS MPH feet Rate Location/Type
Wed 01:54:15 PM 61.0947 -150.2161 194° South  Level FlightAware Approximate
Wed 01:55:15 PM 61.0364 -150.3977 164° South  Level FlightAware Approximate
Wed 01:56:15 PM 60.9772 -150.5774 121° Southeast  Level FlightAware Approximate
Wed 01:56:55 PM 60.9000 -150.3167 246° West 310 357 12,000  Level Anchorage Center
Wed 01:57:55 PM 60.8667 -150.4667 238° Southwest 310 357 15,600 3,350 Climbing Anchorage Center
Wed 01:58:55 PM 60.8167 -150.6333 238° Southwest 330 380 18,700 2,678 Climbing Anchorage Center
Wed 01:59:56 PM 60.7667 -150.8000 241° Southwest 340 391 21,000 2,033 Climbing Anchorage Center
Wed 02:00:56 PM 60.7167 -150.9833 233° Southwest 380 437 22,800 2,450 Climbing Anchorage Center
Wed 02:01:56 PM 60.6500 -151.1667 243° Southwest 400 460 25,900 2,430 Climbing Anchorage Center
Wed 02:02:57 PM 60.6000 -151.3667 236° Southwest 370 426 27,700 1,190 Climbing Anchorage Center
Wed 02:03:57 PM 60.5333 -151.5667 236° Southwest 400 460 28,300 1,289 Climbing Anchorage Center
Wed 02:04:58 PM 60.4667 -151.7667 243° Southwest 410 472 30,300 1,686 Climbing Anchorage Center
Wed 02:05:58 PM 60.4167 -151.9667 234° Southwest 410 472 31,700 1,050 Climbing Anchorage Center
Wed 02:06:58 PM 60.3500 -152.1500 236° Southwest 410 472 32,400 843 Climbing Anchorage Center
Wed 02:07:59 PM 60.2833 -152.3500 234° Southwest 410 472 33,400 942 Climbing Anchorage Center
Wed 02:08:59 PM 60.2167 -152.5333 243° Southwest 410 472 34,300 595 Climbing Anchorage Center
Wed 02:10:00 PM 60.1667 -152.7333 234° Southwest 410 472 34,600 446 Climbing Anchorage Center
Wed 02:11:00 PM 60.1000 -152.9167 236° Southwest 400 460 35,200 500 Climbing Anchorage Center
Wed 02:12:00 PM 60.0333 -153.1167 234° Southwest 420 483 35,600 397 Climbing Anchorage Center
Wed 02:13:01 PM 59.9667 -153.3000 234° Southwest 410 472 36,000 198 Climbing Anchorage Center
Wed 02:14:01 PM 59.9000 -153.4833 237° Southwest 410 472 36,000  Level Anchorage Center
Wed 02:15:01 PM 59.8333 -153.6833 234° Southwest 420 483 36,000  Level Anchorage Center
Wed 02:16:02 PM 59.7667 -153.8667 237° Southwest 420 483 36,000  Level Anchorage Center
Wed 02:17:02 PM 59.7000 -154.0667 234° Southwest 420 483 36,000  Level Anchorage Center
Wed 02:18:03 PM 59.6333 -154.2500 231° Southwest 410 472 36,000  Level Anchorage Center
Wed 02:19:03 PM 59.5500 -154.4500 234° Southwest 420 483 36,000  Level Anchorage Center
Wed 02:20:03 PM 59.4833 -154.6333 234° Southwest 420 483 36,000  Level Anchorage Center
Wed 02:21:04 PM 59.4167 -154.8167 235° Southwest 410 472 36,000  Level Anchorage Center
Wed 02:22:04 PM 59.3500 -155.0000 242° Southwest 400 460 36,000  Level Anchorage Center
Wed 02:23:05 PM 59.3000 -155.1833 235° Southwest 400 460 36,000  Level Anchorage Center
Wed 02:24:05 PM 59.2333 -155.3667 232° Southwest 410 472 36,000  Level Anchorage Center
Wed 02:25:05 PM 59.1667 -155.5333 235° Southwest 400 460 36,000  Level Anchorage Center
Wed 02:26:05 PM 59.1000 -155.7167 235° Southwest 400 460 36,000  Level Anchorage Center
Wed 02:27:05 PM 59.0333 -155.9000 235° Southwest 400 460 36,000  Level Anchorage Center
Wed 02:28:06 PM 58.9667 -156.0833 232° Southwest 400 460 36,000  Level Anchorage Center
Wed 02:29:06 PM 58.9000 -156.2500 235° Southwest 410 472 36,000  Level Anchorage Center
Wed 02:30:07 PM 58.8333 -156.4333 231° Southwest 400 460 36,000  Level Anchorage Center
Wed 02:31:07 PM 58.7500 -156.6333 235° Southwest 430 495 36,000  Level Anchorage Center
Wed 02:32:07 PM 58.6833 -156.8167 233° Southwest 400 460 36,000  Level Anchorage Center
Wed 02:33:08 PM 58.6167 -156.9833 226° Southwest 390 449 36,000  Level Anchorage Center
Wed 02:34:08 PM 58.5333 -157.1500 223° Southwest 410 472 36,000  Level Anchorage Center
Wed 02:35:08 PM 58.4500 -157.3000 223° Southwest 410 472 36,000  Level Anchorage Center
Wed 02:36:09 PM 58.3667 -157.4500 223° Southwest 420 483 36,000  Level Anchorage Center
Wed 02:37:09 PM 58.2833 -157.6000 224° Southwest 410 472 36,000  Level Anchorage Center
Wed 02:38:09 PM 58.2000 -157.7500 224° Southwest 410 472 36,000  Level Anchorage Center
Wed 02:39:10 PM 58.1167 -157.9000 224° Southwest 410 472 36,000 198 Level Anchorage Center
Wed 02:40:10 PM 58.0333 -158.0500 220° Southwest 410 472 36,400 500 Climbing Anchorage Center
Wed 02:41:10 PM 57.9500 -158.1833 224° Southwest 390 449 37,000 545 Climbing Anchorage Center
Wed 02:42:11 PM 57.8667 -158.3333 230° Southwest 390 449 37,500 347 Climbing Anchorage Center
Wed 02:43:11 PM 57.8000 -158.4833 224° Southwest 390 449 37,700 248 Climbing Anchorage Center
Wed 02:44:12 PM 57.7167 -158.6333 224° Southwest 390 449 38,000 149 Climbing Anchorage Center
Wed 02:45:12 PM 57.6333 -158.7833 227° Southwest 390 449 38,000  Level Anchorage Center
Wed 02:46:12 PM 57.5667 -158.9167 227° Southwest 390 449 38,000  Level Anchorage Center
Wed 02:47:13 PM 57.4833 -159.0833 221° Southwest 410 472 38,000  Level Anchorage Center
Wed 02:48:13 PM 57.4000 -159.2167 224° Southwest 390 449 38,000  Level Anchorage Center
Wed 02:49:13 PM 57.3167 -159.3667 221° Southwest 400 460 38,000  Level Anchorage Center
Wed 02:50:13 PM 57.2333 -159.5000 231° Southwest 380 437 38,000  Level Anchorage Center
Wed 02:51:14 PM 57.1667 -159.6500 216° Southwest 390 449 38,000  Level Anchorage Center
Wed 02:52:14 PM 57.0667 -159.7833 231° Southwest 400 460 38,000  Level Anchorage Center
Wed 02:53:14 PM 57.0000 -159.9333 221° Southwest 400 460 38,000  Level Anchorage Center
Wed 02:54:15 PM 56.9167 -160.0667 225° Southwest 400 460 38,000  Level Anchorage Center
Wed 02:55:15 PM 56.8333 -160.2167 221° Southwest 400 460 38,000  Level Anchorage Center
Wed 02:56:15 PM 56.7500 -160.3500 221° Southwest 390 449 38,000  Level Anchorage Center
Wed 02:57:16 PM 56.6667 -160.4833 221° Southwest 390 449 38,000  Level Anchorage Center
Wed 02:58:16 PM 56.5833 -160.6167 221° Southwest 400 460 38,000  Level Anchorage Center
Wed 02:59:17 PM 56.5000 -160.7500 222° Southwest 390 449 38,000  Level Anchorage Center
Wed 03:00:17 PM 56.4167 -160.8833 228° Southwest 390 449 38,000  Level Anchorage Center
Wed 03:01:17 PM 56.3500 -161.0167 222° Southwest 390 449 38,000  Level Anchorage Center
Wed 03:02:18 PM 56.2667 -161.1500 222° Southwest 390 449 38,000  Level Anchorage Center
Wed 03:03:18 PM 56.1833 -161.2833 228° Southwest 390 449 38,000  Level Anchorage Center
Wed 03:04:19 PM 56.1167 -161.4167 222° Southwest 380 437 38,000  Level Anchorage Center
Wed 03:05:19 PM 56.0333 -161.5500 222° Southwest 380 437 38,000  Level Anchorage Center
Wed 03:06:19 PM 55.9500 -161.6833 228° Southwest 380 437 38,000  Level Anchorage Center
Wed 03:07:20 PM 55.8833 -161.8167 218° Southwest 370 426 38,000  Level Anchorage Center
Wed 03:08:20 PM 55.8000 -161.9333 222° Southwest 370 426 38,000  Level Anchorage Center
Wed 03:09:20 PM 55.7167 -162.0667 225° Southwest 380 437 38,000  Level Anchorage Center
Wed 03:10:21 PM 55.6500 -162.1833 218° Southwest 370 426 38,000  Level Anchorage Center
Wed 03:11:21 PM 55.5667 -162.3000 222° Southwest 370 426 38,000  Level Anchorage Center
Wed 03:12:22 PM 55.4833 -162.4333 225° Southwest 370 426 38,000  Level Anchorage Center
Wed 03:13:22 PM 55.4167 -162.5500 219° Southwest 360 414 38,000  Level Anchorage Center
Wed 03:14:22 PM 55.3333 -162.6667 222° Southwest 370 426 38,000  Level Anchorage Center
Wed 03:15:23 PM 55.2500 -162.8000 252° West 340 391 38,000  Level Anchorage Center
Wed 03:16:23 PM 55.2167 -162.9833 225° Southwest 370 426 38,000  Level Anchorage Center
Wed 03:17:24 PM 55.1500 -163.1000 242° Southwest 350 403 38,000  Level Anchorage Center
Wed 03:18:24 PM 55.1000 -163.2667 237° Southwest 340 391 38,000  Level Anchorage Center
Wed 03:19:24 PM 55.0500 -163.4000 240° Southwest 360 414 38,000  Level Anchorage Center
Wed 03:20:25 PM 55.0000 -163.5500 240° Southwest 340 391 38,000  Level Anchorage Center
Wed 03:21:25 PM 54.9500 -163.7000 240° Southwest 350 403 38,000  Level Anchorage Center
Wed 03:22:25 PM 54.9000 -163.8500 240° Southwest 350 403 38,000  Level Anchorage Center
Wed 03:23:26 PM 54.8500 -164.0000 229° Southwest 350 403 38,000  Level Anchorage Center
Wed 03:24:26 PM 54.7833 -164.1333 240° Southwest 350 403 38,000  Level Anchorage Center
Wed 03:25:27 PM 54.7333 -164.2833 240° Southwest 360 414 38,000  Level Anchorage Center
Wed 03:26:27 PM 54.6833 -164.4333 240° Southwest 350 403 38,000  Level Anchorage Center
Wed 03:27:27 PM 54.6333 -164.5833 240° Southwest 350 403 38,000  Level Anchorage Center
Wed 03:28:28 PM 54.5833 -164.7333 238° Southwest 350 403 38,000  Level Anchorage Center
Wed 03:30:36 PM 54.4667 -165.0500 244° Southwest 360 414 38,000  Level Anchorage Center
Wed 03:31:29 PM 54.4333 -165.1667 233° Southwest 360 414 38,000  Level Anchorage Center
Wed 03:32:29 PM 54.3667 -165.3167 240° Southwest 360 414 38,000  Level Anchorage Center
Wed 03:33:29 PM 54.3167 -165.4667 240° Southwest 360 414 38,000  Level Anchorage Center
Wed 03:34:30 PM 54.2667 -165.6167 240° Southwest 370 426 38,000  Level Anchorage Center
Wed 03:35:30 PM 54.2167 -165.7667 234° Southwest 370 426 38,000  Level Anchorage Center
Wed 03:37:37 PM 54.0833 -166.0833 240° Southwest 360 414 38,000  Level Anchorage Center
Wed 03:38:36 PM 54.0333 -166.2333 230° Southwest 370 426 38,000  Level Anchorage Center
Wed 03:39:36 PM 53.9667 -166.3667 241° Southwest 350 403 38,000  Level Anchorage Center
Wed 03:40:37 PM 53.9167 -166.5167 249° West 360 414 38,000  Level Anchorage Center
Wed 03:41:36 PM 53.8833 -166.6667 261° West 360 414 38,000  Level Anchorage Center
Wed 03:42:37 PM 53.8667 -166.8500 251° West 380 437 38,000  Level Anchorage Center
Wed 03:43:36 PM 53.8333 -167.0167 251° West 370 426 38,000  Level Anchorage Center
Wed 03:44:37 PM 53.8000 -167.1833 260° West 360 414 38,000  Level Anchorage Center
Wed 03:45:37 PM 53.7833 -167.3500 251° West 380 437 38,000  Level Anchorage Center
Wed 03:46:37 PM 53.7500 -167.5167 251° West 370 426 38,000  Level Anchorage Center
Wed 03:47:37 PM 53.7167 -167.6833 261° West 350 403 38,000  Level Anchorage Center
Wed 03:48:37 PM 53.7000 -167.8667 251° West 380 437 38,000  Level Anchorage Center
Wed 03:49:37 PM 53.6667 -168.0333 261° West 390 449 38,000  Level Anchorage Center
Wed 03:50:37 PM 53.6500 -168.2167 243° Southwest 370 426 38,000  Level Anchorage Center
Wed 03:51:37 PM 53.6000 -168.3833 261° West 370 426 38,000  Level Anchorage Center
Wed 03:52:37 PM 53.5833 -168.5500 250° West 370 426 38,000  Level Anchorage Center
Wed 03:53:37 PM 53.5500 -168.7000 254° West 370 426 38,000  Level Anchorage Center
Wed 03:54:37 PM 53.5167 -168.9000 261° West 400 460 38,000  Level Anchorage Center
Wed 03:55:38 PM 53.5000 -169.0667 251° West 400 460 38,000  Level Anchorage Center
Wed 03:56:37 PM 53.4667 -169.2333 253° West 390 449 38,000  Level Anchorage Center
Wed 03:57:37 PM 53.4333 -169.4167 253° West 380 437 38,000  Level Anchorage Center
Wed 03:58:38 PM 53.4000 -169.6000 252° West 400 460 38,000  Level Anchorage Center
Wed 03:59:38 PM 53.3667 -169.7667 261° West 400 460 38,000  Level Anchorage Center
Wed 04:00:38 PM 53.3500 -169.9500 252° West 390 449 38,000  Level Anchorage Center
Wed 04:01:38 PM 53.3167 -170.1167 253° West 390 449 38,000  Level Anchorage Center
Wed 04:02:38 PM 53.2833 -170.3000 250° West 380 437 38,000  Level Anchorage Center
Wed 04:03:38 PM 53.2500 -170.4500 255° West 370 426 38,000  Level Anchorage Center
Wed 04:04:38 PM 53.2167 -170.6500 253° West 400 460 38,000  Level Anchorage Center
Wed 04:05:38 PM 53.1833 -170.8333 243° Southwest 410 472 38,000  Level Anchorage Center
Wed 04:06:38 PM 53.1333 -171.0000 252° West 390 449 38,000  Level Anchorage Center
Wed 04:07:38 PM 53.1000 -171.1667 253° West 390 449 38,000  Level Anchorage Center
Wed 04:08:38 PM 53.0667 -171.3500 252° West 410 472 38,000  Level Anchorage Center
Wed 04:17:15 PM 52.7773 -172.7566 251° West  Level FlightAware Approximate
Wed 04:18:15 PM 52.7426 -172.9186 245° Southwest  Level FlightAware Approximate
Wed 04:19:15 PM 52.6989 -173.0727 251° West  Level FlightAware Approximate
Wed 04:20:15 PM 52.6643 -173.2344 250° West  Level FlightAware Approximate
Wed 04:21:15 PM 52.6294 -173.3959 250° West  Level FlightAware Approximate
Wed 04:22:15 PM 52.5943 -173.5571 250° West  Level FlightAware Approximate
Wed 04:23:15 PM 52.5590 -173.7181 250° West  Level FlightAware Approximate
Wed 04:24:15 PM 52.5234 -173.8788 256° West  Level FlightAware Approximate
Wed 04:25:15 PM 52.4977 -174.0434 249° West  Level FlightAware Approximate
Wed 04:26:15 PM 52.4611 -174.2033 249° West  Level FlightAware Approximate
Wed 04:27:15 PM 52.4243 -174.3628 249° West  Level FlightAware Approximate
Wed 04:28:15 PM 52.3865 -174.5215 249° West  Level FlightAware Approximate
Wed 04:29:15 PM 52.3493 -174.6806 247° West  Level FlightAware Approximate
Wed 04:30:15 PM 52.3081 -174.8367 249° West  Level FlightAware Approximate
Wed 04:31:15 PM 52.2709 -174.9955 249° West  Level FlightAware Approximate
Wed 04:32:15 PM 52.2334 -175.1540 249° West  Level FlightAware Approximate
Wed 04:33:15 PM 52.1958 -175.3122 248° West  Level FlightAware Approximate
Wed 04:34:15 PM 52.1571 -175.4695 249° West  Level FlightAware Approximate
Wed 04:35:15 PM 52.1191 -175.6273 248° West  Level FlightAware Approximate
Wed 04:36:15 PM 52.0801 -175.7834 249° West  Level FlightAware Approximate
Wed 04:37:15 PM 52.0420 -175.9408 253° West  Level FlightAware Approximate
Wed 04:38:15 PM 52.0109 -176.1010 247° West  Level FlightAware Approximate
Wed 04:39:15 PM 51.9698 -176.2560 246° West  Level FlightAware Approximate
Wed 04:40:15 PM 51.9272 -176.4080 247° West  Level FlightAware Approximate
Wed 04:41:15 PM 51.8867 -176.5632 260° West  Level FlightAware Approximate
Wed 04:42:15 PM 51.8691 -176.7292 80° East  Level Estimated
Wed 04:43:15 PM 51.8867 -176.5632 260° West  Level Estimated
Wed 04:44:15 PM 51.8691 -176.7292 92° East  Level Estimated
Wed 04:45:15 PM 51.8667 -176.6333 325° Northwest  Level FlightAware Approximate
Wed 04:46:15 PM 51.9521 -176.7295 145° Southeast  Level Estimated
Wed 04:47:15 PM 51.8667 -176.6333 325° Northwest  Level FlightAware Approximate
Wed 04:48:15 PM 51.9521 -176.7295 325° Northwest  Level Estimated

Login

Don't have an account? Register now (free) for customized features, flight alerts, and more!